createdAt,value
2022-08-27T00:02:22.691Z,0.00
2022-08-27T00:07:23.916Z,0.00
2022-08-27T00:12:25.078Z,0.00
2022-08-27T00:17:26.192Z,0.00
2022-08-27T00:22:27.359Z,0.00
2022-08-27T00:27:28.469Z,0.00
2022-08-27T00:32:28.677Z,0.00
2022-08-27T00:37:28.872Z,0.00
2022-08-27T00:42:29.502Z,0.00
2022-08-27T00:47:31.246Z,0.00
2022-08-27T00:52:30.450Z,0.00
2022-08-27T00:57:33.566Z,0.00
2022-08-27T01:02:32.732Z,0.00
2022-08-27T01:07:33.968Z,0.00
2022-08-27T01:12:36.074Z,0.00
2022-08-27T01:17:35.069Z,0.00
2022-08-27T01:22:36.241Z,0.00
2022-08-27T01:27:37.457Z,0.00
2022-08-27T01:32:39.906Z,0.00
2022-08-27T01:37:39.194Z,0.00
2022-08-27T01:42:40.467Z,0.00
2022-08-27T01:47:41.735Z,0.00
2022-08-27T01:52:42.994Z,0.00
2022-08-27T01:57:46.124Z,0.00
2022-08-27T02:02:45.297Z,0.00
2022-08-27T02:07:46.429Z,0.00
2022-08-27T02:12:47.637Z,0.00
2022-08-27T02:17:49.058Z,0.00
2022-08-27T02:22:50.259Z,0.00
2022-08-27T02:27:51.461Z,0.00
2022-08-27T02:32:52.777Z,0.00
2022-08-27T02:37:54.062Z,0.00
2022-08-27T02:42:55.337Z,0.00
2022-08-27T02:47:56.569Z,0.00
2022-08-27T02:52:57.786Z,0.00
2022-08-27T02:57:59.071Z,0.00
2022-08-27T03:03:00.372Z,0.00
2022-08-27T03:08:01.533Z,0.00
2022-08-27T03:13:02.806Z,0.00
2022-08-27T03:18:04.166Z,0.00
2022-08-27T03:23:09.311Z,0.00
2022-08-27T03:28:22.470Z,0.00
2022-08-27T03:33:07.695Z,0.00
2022-08-27T03:38:08.980Z,0.00
2022-08-27T03:43:10.527Z,0.00
2022-08-27T03:48:10.159Z,0.00
2022-08-27T03:53:09.440Z,0.00
2022-08-27T03:58:10.866Z,0.00
2022-08-27T04:03:10.229Z,0.00
2022-08-27T04:08:11.651Z,4.00
2022-08-27T04:13:11.016Z,4.00
2022-08-27T04:18:12.369Z,8.00
2022-08-27T04:23:14.770Z,16.00
2022-08-27T04:28:13.954Z,36.00
2022-08-27T04:33:16.190Z,68.00
2022-08-27T04:38:15.383Z,124.00
2022-08-27T04:43:17.679Z,192.00
2022-08-27T04:48:17.002Z,332.00
2022-08-27T04:53:18.326Z,504.00
2022-08-27T04:58:18.478Z,472.00
2022-08-27T05:03:21.742Z,492.00
2022-08-27T05:08:20.960Z,620.00
2022-08-27T05:13:22.137Z,712.00
2022-08-27T05:18:23.437Z,752.00
2022-08-27T05:23:24.773Z,744.00
2022-08-27T05:28:27.992Z,824.00
2022-08-27T05:33:27.430Z,824.00
2022-08-27T05:38:28.675Z,832.00
2022-08-27T05:43:29.925Z,904.00
2022-08-27T05:48:31.167Z,908.00
2022-08-27T05:53:32.495Z,1008.00
2022-08-27T05:58:34.749Z,1100.00
2022-08-27T06:03:33.973Z,1092.00
2022-08-27T06:08:35.230Z,960.00
2022-08-27T06:13:36.600Z,984.00
2022-08-27T06:18:37.711Z,1108.00
2022-08-27T06:23:40.052Z,1224.00
2022-08-27T06:28:39.357Z,1336.00
2022-08-27T06:33:40.523Z,1504.00
2022-08-27T06:38:42.979Z,1604.00
2022-08-27T06:43:42.295Z,1980.00
2022-08-27T06:48:43.641Z,2308.00
2022-08-27T06:53:44.918Z,2896.00
2022-08-27T06:58:46.237Z,3668.00
2022-08-27T07:03:47.544Z,4120.00
2022-08-27T07:08:53.273Z,5052.00
2022-08-27T07:13:48.863Z,5840.00
2022-08-27T07:18:50.233Z,6504.00
2022-08-27T07:23:52.867Z,6256.00
2022-08-27T07:28:52.071Z,6404.00
2022-08-27T07:33:53.505Z,7300.00
2022-08-27T07:39:00.773Z,8256.00
2022-08-27T07:43:56.185Z,9056.00
2022-08-27T07:48:55.482Z,9704.00
2022-08-27T07:53:56.663Z,9820.00
2022-08-27T07:58:57.818Z,9428.00
2022-08-27T08:03:58.191Z,9068.00
2022-08-27T08:08:59.418Z,8244.00
2022-08-27T08:14:00.775Z,7040.00
2022-08-27T08:19:03.960Z,7444.00
2022-08-27T08:24:03.428Z,7156.00
2022-08-27T08:29:02.698Z,6900.00
2022-08-27T08:34:03.880Z,6396.00
2022-08-27T08:39:05.074Z,6696.00
2022-08-27T08:44:06.285Z,8596.00
2022-08-27T08:49:07.517Z,8288.00
2022-08-27T08:54:08.723Z,8372.00
2022-08-27T08:59:09.875Z,7892.00
2022-08-27T09:04:11.095Z,7884.00
2022-08-27T09:09:11.248Z,8088.00
2022-08-27T09:14:14.407Z,8096.00
2022-08-27T09:19:13.602Z,7608.00
2022-08-27T09:24:13.226Z,7948.00
2022-08-27T09:29:13.327Z,8824.00
2022-08-27T09:34:15.490Z,9520.00
2022-08-27T09:39:14.630Z,9676.00
2022-08-27T09:44:15.796Z,9412.00
2022-08-27T09:49:16.996Z,9452.00
2022-08-27T09:54:18.126Z,9584.00
2022-08-27T09:59:20.294Z,9596.00
2022-08-27T10:04:19.471Z,9640.00
2022-08-27T10:09:21.695Z,9704.00
2022-08-27T10:14:19.810Z,10348.00
2022-08-27T10:19:21.969Z,10804.00
2022-08-27T10:24:22.155Z,11100.00
2022-08-27T10:29:21.651Z,10652.00
2022-08-27T10:34:20.778Z,10124.00
2022-08-27T10:39:22.702Z,9604.00
2022-08-27T10:44:21.863Z,9440.00
2022-08-27T10:49:24.039Z,9600.00
2022-08-27T10:54:23.234Z,9600.00
2022-08-27T10:59:29.940Z,9892.00
2022-08-27T11:04:25.181Z,9564.00
2022-08-27T11:09:27.677Z,9164.00
2022-08-27T11:14:27.310Z,9048.00
2022-08-27T20:07:03.634Z,0.00
2022-08-27T20:12:05.856Z,0.00
2022-08-27T20:17:07.064Z,0.00
2022-08-27T20:22:07.701Z,0.00
2022-08-27T20:27:08.898Z,0.00
2022-08-27T20:32:10.040Z,0.00
2022-08-27T20:37:12.133Z,0.00
2022-08-27T20:42:12.241Z,0.00
2022-08-27T20:47:10.334Z,0.00
2022-08-27T20:52:12.444Z,0.00
2022-08-27T20:57:11.682Z,0.00
2022-08-27T21:02:13.195Z,0.00
2022-08-27T21:07:14.343Z,0.00
2022-08-27T21:12:13.510Z,0.00
2022-08-27T21:17:13.558Z,0.00
2022-08-27T21:22:15.808Z,0.00
2022-08-27T21:27:16.000Z,0.00
2022-08-27T21:32:16.141Z,0.00
2022-08-27T21:37:15.308Z,0.00
2022-08-27T21:42:16.429Z,0.00
2022-08-27T21:47:17.617Z,0.00
2022-08-27T21:52:18.733Z,0.00
2022-08-27T21:57:19.992Z,0.00
2022-08-27T22:02:40.215Z,0.00
2022-08-27T22:07:21.307Z,0.00
2022-08-27T22:12:22.455Z,0.00
2022-08-27T22:17:24.621Z,0.00
2022-08-27T22:22:23.727Z,0.00
2022-08-27T22:27:23.700Z,0.00
2022-08-27T22:32:24.826Z,0.00
2022-08-27T22:37:26.951Z,0.00
2022-08-27T22:42:26.193Z,0.00
2022-08-27T22:47:26.148Z,0.00
2022-08-27T22:52:28.026Z,0.00
2022-08-27T22:57:25.606Z,0.00
2022-08-27T23:02:26.715Z,0.00
2022-08-27T23:07:28.877Z,0.00
2022-08-27T23:12:28.118Z,0.00
2022-08-27T23:17:33.196Z,0.00
2022-08-27T23:22:30.408Z,0.00
2022-08-27T23:27:31.610Z,0.00
2022-08-27T23:32:32.727Z,0.00
2022-08-27T23:37:33.899Z,0.00
2022-08-27T23:42:35.067Z,0.00
2022-08-27T23:47:37.245Z,0.00
2022-08-27T23:52:37.455Z,0.00
2022-08-27T23:57:36.628Z,0.00
